Time;durP1;ratioP1;P1;durP2;ratioP2;P2;SDS_P1;SDS_P2;PMS_P1;PMS_P2;Temp;Humidity;BMP_temperature;BMP_pressure;BME280_temperature;BME280_humidity;BME280_pressure;Samples;Min_cycle;Max_cycle;Signal;HPM_P1;HPM_P2
2021/12/11 00:00:21;;;;;;;26.90;18.27;;;9.60;99.90;;;;;;5074922;28;20161;-77
2021/12/11 00:03:15;;;;;;;23.25;16.75;;;9.60;99.90;;;;;;5076542;28;20048;-77
2021/12/11 00:05:45;;;;;;;19.70;15.57;;;9.60;99.90;;;;;;5077536;28;20020;-77
2021/12/11 00:08:17;;;;;;;20.42;14.73;;;9.60;99.90;;;;;;5092247;28;20027;-77
2021/12/11 00:11:09;;;;;;;21.15;15.90;;;9.60;99.90;;;;;;5087258;28;20114;-78
2021/12/11 00:13:39;;;;;;;19.92;15.32;;;9.60;99.90;;;;;;5088265;28;20122;-77
2021/12/11 00:16:07;;;;;;;19.65;15.63;;;9.60;99.90;;;;;;5070183;28;20470;-77
2021/12/11 00:18:33;;;;;;;39.17;23.58;;;9.60;99.90;;;;;;5062423;28;20020;-78
2021/12/11 00:21:01;;;;;;;31.60;20.88;;;9.60;99.90;;;;;;5093586;28;20509;-79
2021/12/11 00:23:33;;;;;;;34.00;20.02;;;9.60;99.90;;;;;;5095374;28;20036;-78
2021/12/11 00:25:59;;;;;;;33.53;22.80;;;9.60;99.90;;;;;;5097180;28;20046;-78
2021/12/11 00:28:25;;;;;;;39.47;25.23;;;9.60;99.90;;;;;;5087321;28;20032;-79
2021/12/11 00:30:51;;;;;;;29.98;20.88;;;9.60;99.90;;;;;;5093766;28;20056;-77
2021/12/11 00:33:24;;;;;;;32.13;21.63;;;9.60;99.90;;;;;;5096917;28;20028;-77
2021/12/11 00:35:53;;;;;;;22.88;17.52;;;9.60;99.90;;;;;;5095910;28;20020;-78
2021/12/11 00:38:24;;;;;;;24.58;18.10;;;9.60;99.90;;;;;;5079250;28;20093;-78
2021/12/11 00:40:52;;;;;;;23.15;17.08;;;9.60;99.90;;;;;;5097025;28;20058;-78
2021/12/11 00:43:23;;;;;;;22.92;16.88;;;9.60;99.90;;;;;;5081968;28;20031;-77
2021/12/11 00:45:50;;;;;;;23.17;16.80;;;9.60;99.90;;;;;;5105000;28;20024;-77
2021/12/11 00:48:20;;;;;;;18.05;14.00;;;9.60;99.90;;;;;;5099322;28;20035;-77
2021/12/11 00:51:17;;;;;;;18.35;14.68;;;9.60;99.90;;;;;;5098958;28;20035;-77
2021/12/11 00:53:51;;;;;;;19.42;14.07;;;9.60;99.90;;;;;;5082050;28;20048;-78
2021/12/11 00:56:23;;;;;;;21.95;15.48;;;9.60;99.90;;;;;;5085175;28;20032;-78
2021/12/11 00:58:55;;;;;;;17.83;13.50;;;9.60;99.90;;;;;;5096691;28;20481;-77
2021/12/11 01:01:36;;;;;;;21.95;13.98;;;9.60;99.90;;;;;;5078600;28;20508;-77
2021/12/11 01:04:10;;;;;;;19.75;15.25;;;9.60;99.90;;;;;;5096947;28;20024;-77
2021/12/11 01:06:50;;;;;;;19.92;14.48;;;9.60;99.90;;;;;;5085841;28;20379;-77
2021/12/11 01:09:20;;;;;;;15.75;13.73;;;9.50;99.90;;;;;;5079342;28;20386;-78
2021/12/11 01:11:57;;;;;;;18.38;15.20;;;9.50;99.90;;;;;;5073812;28;20036;-78
2021/12/11 01:14:41;;;;;;;19.85;14.20;;;9.50;99.90;;;;;;5075201;28;20556;-78
2021/12/11 01:17:36;;;;;;;18.52;13.57;;;9.50;99.90;;;;;;5075125;28;20394;-78
2021/12/11 01:20:12;;;;;;;20.07;15.67;;;9.50;99.90;;;;;;5076244;28;20064;-77
2021/12/11 01:22:38;;;;;;;16.15;13.48;;;9.50;99.90;;;;;;5085235;28;20081;-78
2021/12/11 01:25:17;;;;;;;21.63;15.63;;;9.50;99.90;;;;;;5095954;28;20119;-78
2021/12/11 01:27:47;;;;;;;18.13;13.50;;;9.40;99.90;;;;;;5095128;28;20064;-78
2021/12/11 01:30:18;;;;;;;18.90;14.00;;;9.40;99.90;;;;;;5077361;28;20036;-77
2021/12/11 01:32:44;;;;;;;20.63;15.57;;;9.20;99.90;;;;;;5093340;28;20028;-77
2021/12/11 01:35:12;;;;;;;21.10;16.40;;;9.00;99.90;;;;;;5057960;28;20036;-78
2021/12/11 01:37:39;;;;;;;21.02;15.73;;;8.80;99.90;;;;;;5080870;28;20340;-77
2021/12/11 01:40:07;;;;;;;23.08;16.83;;;8.70;99.90;;;;;;5102762;28;20043;-77
2021/12/11 01:42:35;;;;;;;22.38;15.77;;;8.50;99.90;;;;;;5079100;28;20036;-77
2021/12/11 01:45:05;;;;;;;23.77;16.15;;;8.40;99.90;;;;;;5087623;28;20020;-77
2021/12/11 01:47:33;;;;;;;26.10;17.17;;;8.20;99.90;;;;;;5096183;28;20024;-77
2021/12/11 01:50:19;;;;;;;26.38;18.00;;;8.10;99.90;;;;;;5095771;28;20466;-77
2021/12/11 01:53:06;;;;;;;25.83;17.17;;;8.00;99.90;;;;;;5081278;28;20028;-78
2021/12/11 01:55:47;;;;;;;22.40;16.10;;;8.00;99.90;;;;;;5095238;28;20427;-78
2021/12/11 01:58:20;;;;;;;23.50;16.63;;;8.00;99.90;;;;;;5094388;28;20523;-77
2021/12/11 02:00:57;;;;;;;22.75;15.90;;;8.00;99.90;;;;;;5088316;28;20462;-77
2021/12/11 02:03:26;;;;;;;24.17;16.25;;;7.90;99.90;;;;;;5057169;28;20036;-77
2021/12/11 02:05:52;;;;;;;23.63;16.02;;;7.90;99.90;;;;;;5074926;28;20031;-78
2021/12/11 02:08:25;;;;;;;26.55;17.10;;;7.90;99.90;;;;;;5075203;28;20468;-78
2021/12/11 02:10:56;;;;;;;24.23;16.25;;;7.90;99.90;;;;;;5085706;28;20028;-78
2021/12/11 02:13:37;;;;;;;23.13;16.67;;;7.90;99.90;;;;;;5085729;28;20032;-78
2021/12/11 02:16:05;;;;;;;23.30;16.23;;;7.90;99.90;;;;;;5094911;28;20503;-78
2021/12/11 02:18:36;;;;;;;23.50;16.80;;;8.00;99.90;;;;;;5095732;28;20039;-78
2021/12/11 02:21:25;;;;;;;23.90;16.27;;;8.10;99.90;;;;;;5089736;28;20016;-78
2021/12/11 02:23:58;;;;;;;22.30;15.10;;;8.10;99.90;;;;;;5085653;28;20028;-78
2021/12/11 02:26:26;;;;;;;21.50;15.93;;;8.00;99.90;;;;;;5089973;28;20047;-77
2021/12/11 02:29:16;;;;;;;25.05;16.25;;;8.00;99.90;;;;;;5094597;28;20355;-78
2021/12/11 02:31:54;;;;;;;25.17;17.23;;;8.00;99.90;;;;;;5092191;28;20469;-78
2021/12/11 02:34:41;;;;;;;24.58;16.90;;;8.00;99.90;;;;;;5089837;28;20031;-77
2021/12/11 02:37:11;;;;;;;24.92;16.88;;;8.00;99.90;;;;;;5080069;28;20529;-78
2021/12/11 02:39:43;;;;;;;22.60;16.17;;;8.10;99.90;;;;;;5095055;28;20023;-78
2021/12/11 02:42:21;;;;;;;21.42;16.27;;;8.20;99.90;;;;;;5094897;28;20099;-78
2021/12/11 02:45:01;;;;;;;23.45;15.93;;;8.30;99.90;;;;;;5094826;28;20046;-78
2021/12/11 02:47:50;;;;;;;24.90;17.05;;;8.40;99.90;;;;;;5080149;28;20035;-78
2021/12/11 02:50:31;;;;;;;23.05;17.20;;;8.50;99.90;;;;;;5056542;28;20035;-78
2021/12/11 02:53:11;;;;;;;23.15;16.48;;;8.40;99.90;;;;;;5094209;28;20028;-77
2021/12/11 02:55:42;;;;;;;23.08;16.10;;;8.40;99.90;;;;;;5093225;28;20123;-77
2021/12/11 02:58:15;;;;;;;22.95;16.73;;;8.30;99.90;;;;;;5094657;28;20103;-78
2021/12/11 03:00:49;;;;;;;23.05;16.35;;;8.10;99.90;;;;;;5076674;28;20362;-78
2021/12/11 03:03:22;;;;;;;23.92;16.40;;;8.00;99.90;;;;;;5073168;28;20220;-78
2021/12/11 03:06:18;;;;;;;24.42;16.67;;;7.90;99.90;;;;;;5073058;28;20429;-78
2021/12/11 03:08:37;;;;;;;26.02;17.73;;;7.70;99.90;;;;;;5074261;28;20070;-84
2021/12/11 03:11:07;;;;;;;28.40;19.75;;;7.70;99.90;;;;;;5074140;28;20036;-85
2021/12/11 03:13:37;;;;;;;29.02;19.95;;;7.70;99.90;;;;;;5073088;28;20471;-78
2021/12/11 03:16:05;;;;;;;28.38;19.00;;;7.60;99.90;;;;;;5074372;28;20081;-81
2021/12/11 03:18:31;;;;;;;27.60;19.05;;;7.60;99.90;;;;;;5057442;28;20024;-79
2021/12/11 03:20:57;;;;;;;27.42;19.50;;;7.60;99.90;;;;;;5094197;28;20028;-80
2021/12/11 03:23:23;;;;;;;28.20;18.02;;;7.60;99.90;;;;;;5080040;28;20039;-80
2021/12/11 03:25:49;;;;;;;26.58;18.60;;;7.50;99.90;;;;;;5084200;28;20051;-80
2021/12/11 03:28:19;;;;;;;29.17;18.52;;;7.50;99.90;;;;;;5090686;28;20498;-80
2021/12/11 03:30:52;;;;;;;31.98;19.58;;;7.50;99.90;;;;;;5095761;28;20047;-79
2021/12/11 03:33:19;;;;;;;29.77;19.15;;;7.50;99.90;;;;;;5094489;28;20024;-79
2021/12/11 03:35:45;;;;;;;30.42;18.42;;;7.50;99.90;;;;;;5075371;28;20475;-80
2021/12/11 03:38:12;;;;;;;26.75;18.52;;;7.40;99.90;;;;;;5076188;28;20033;-80
2021/12/11 03:40:38;;;;;;;26.30;19.10;;;7.40;99.90;;;;;;5092099;28;20063;-80
2021/12/11 03:43:07;;;;;;;34.92;22.38;;;7.50;99.90;;;;;;5093171;28;20021;-80
2021/12/11 03:45:36;;;;;;;29.15;20.60;;;7.50;99.90;;;;;;5079626;28;20478;-80
2021/12/11 03:48:15;;;;;;;28.40;20.27;;;7.50;99.90;;;;;;5066177;28;20082;-78
2021/12/11 03:50:42;;;;;;;26.80;18.85;;;7.50;99.90;;;;;;5099846;28;20031;-79
2021/12/11 03:53:10;;;;;;;31.05;19.70;;;7.50;99.90;;;;;;5097409;28;20051;-78
2021/12/11 03:55:43;;;;;;;31.50;19.58;;;7.40;99.90;;;;;;5093148;28;20351;-78
2021/12/11 03:58:09;;;;;;;31.80;22.23;;;7.50;99.90;;;;;;5075647;28;20028;-79
2021/12/11 04:01:10;;;;;;;30.48;20.05;;;7.50;99.90;;;;;;5070335;28;20028;-78
2021/12/11 04:03:38;;;;;;;29.85;20.88;;;7.50;99.90;;;;;;5060601;28;20451;-79
2021/12/11 04:06:08;;;;;;;31.90;20.13;;;7.40;99.90;;;;;;5089146;28;20042;-79
2021/12/11 04:08:40;;;;;;;32.28;21.25;;;7.40;99.90;;;;;;5055581;28;20119;-79
2021/12/11 04:11:11;;;;;;;30.08;20.52;;;7.40;99.90;;;;;;5073381;28;20041;-79
2021/12/11 04:13:37;;;;;;;28.05;18.95;;;7.30;99.90;;;;;;5073403;28;20033;-79
2021/12/11 04:16:04;;;;;;;28.20;18.88;;;7.30;99.90;;;;;;5073376;28;20181;-80
2021/12/11 04:18:30;;;;;;;27.30;18.88;;;7.30;99.90;;;;;;5072030;28;20052;-80
2021/12/11 04:20:56;;;;;;;25.00;18.27;;;7.30;99.90;;;;;;5074217;28;20494;-80
2021/12/11 04:23:22;;;;;;;27.48;19.75;;;7.30;99.90;;;;;;5087536;28;20028;-79
2021/12/11 04:25:50;;;;;;;32.47;22.40;;;7.20;99.90;;;;;;5079593;28;20084;-80
2021/12/11 04:28:18;;;;;;;35.70;25.17;;;7.20;99.90;;;;;;5074619;28;20363;-80
2021/12/11 04:30:46;;;;;;;44.45;32.85;;;7.20;99.90;;;;;;5073368;28;20028;-79
2021/12/11 04:33:12;;;;;;;42.63;30.23;;;7.20;99.90;;;;;;5073184;28;20111;-78
2021/12/11 04:35:38;;;;;;;35.30;23.10;;;7.10;99.90;;;;;;5073042;28;20063;-78
2021/12/11 04:38:08;;;;;;;36.97;26.15;;;7.20;99.90;;;;;;5088928;28;20112;-78
2021/12/11 04:40:41;;;;;;;32.47;21.35;;;7.20;99.90;;;;;;5074104;28;20082;-79
2021/12/11 04:43:14;;;;;;;27.77;19.73;;;7.20;99.90;;;;;;5073515;28;20024;-79
2021/12/11 04:45:50;;;;;;;28.73;20.52;;;7.20;99.90;;;;;;5093637;28;20020;-79
2021/12/11 04:48:37;;;;;;;36.75;26.58;;;7.30;99.90;;;;;;5095574;28;20042;-79
2021/12/11 05:10:13;;;;;;;34.10;22.45;;;7.30;99.90;;;;;;5088162;28;20067;-78
2021/12/11 05:12:39;;;;;;;34.63;23.17;;;7.30;99.90;;;;;;5095157;28;20077;-79
2021/12/11 05:15:09;;;;;;;33.75;22.33;;;7.30;99.90;;;;;;5079970;28;20035;-79
2021/12/11 05:17:35;;;;;;;45.15;30.95;;;7.30;99.90;;;;;;5081323;28;20053;-77
2021/12/11 05:20:03;;;;;;;45.15;32.40;;;7.30;99.90;;;;;;5096614;28;20103;-79
2021/12/11 05:22:29;;;;;;;40.72;26.95;;;7.30;99.90;;;;;;5087081;28;20032;-80
2021/12/11 05:24:56;;;;;;;33.92;23.52;;;7.30;99.90;;;;;;5077233;28;20036;-77
2021/12/11 05:27:22;;;;;;;32.97;22.60;;;7.40;99.90;;;;;;5095944;28;20028;-77
2021/12/11 05:29:48;;;;;;;34.50;22.10;;;7.40;99.90;;;;;;5086152;28;20032;-77
2021/12/11 05:32:17;;;;;;;33.40;22.88;;;7.50;99.90;;;;;;5073647;28;20054;-78
2021/12/11 05:34:43;;;;;;;28.38;19.70;;;7.50;99.90;;;;;;5072687;28;20523;-77
2021/12/11 05:37:08;;;;;;;31.75;21.33;;;7.50;99.90;;;;;;5080682;28;20111;-76
2021/12/11 05:39:35;;;;;;;42.55;29.23;;;7.60;99.90;;;;;;5090076;28;20488;-78
2021/12/11 05:42:01;;;;;;;32.45;22.45;;;7.60;99.90;;;;;;5096186;28;20115;-78
2021/12/11 05:44:27;;;;;;;32.35;23.10;;;7.60;99.90;;;;;;5096328;28;20103;-78
2021/12/11 05:46:54;;;;;;;30.30;21.00;;;7.60;99.90;;;;;;5096061;28;20028;-78
2021/12/11 05:49:21;;;;;;;41.10;27.23;;;7.60;99.90;;;;;;5096728;28;20032;-77
2021/12/11 05:51:49;;;;;;;80.75;42.13;;;7.60;99.90;;;;;;5094260;28;20024;-78
2021/12/11 05:54:25;;;;;;;84.88;45.35;;;7.60;99.90;;;;;;5094713;28;20032;-78
2021/12/11 05:56:57;;;;;;;51.45;29.90;;;7.60;99.90;;;;;;5093015;28;20039;-78
2021/12/11 05:59:23;;;;;;;37.60;26.00;;;7.60;99.90;;;;;;5097365;28;20077;-78
2021/12/11 06:01:54;;;;;;;30.30;21.25;;;7.60;99.90;;;;;;5096510;28;20083;-78
2021/12/11 06:04:31;;;;;;;30.20;21.77;;;7.60;99.90;;;;;;5084338;28;20025;-76
2021/12/11 06:06:58;;;;;;;28.92;20.73;;;7.60;99.90;;;;;;5057578;28;20115;-77
2021/12/11 06:09:25;;;;;;;30.38;22.55;;;7.60;99.90;;;;;;5085091;28;20359;-78
2021/12/11 06:11:58;;;;;;;33.10;23.05;;;7.50;99.90;;;;;;5101030;28;20051;-78
2021/12/11 06:14:25;;;;;;;28.75;22.15;;;7.50;99.90;;;;;;5095862;28;20034;-77
2021/12/11 06:16:53;;;;;;;31.80;21.40;;;7.40;99.90;;;;;;5093756;28;20073;-79
2021/12/11 06:19:21;;;;;;;29.55;22.02;;;7.40;99.90;;;;;;5095741;28;20408;-77
2021/12/11 06:21:49;;;;;;;30.80;21.70;;;7.40;99.90;;;;;;5093882;28;20039;-78
2021/12/11 06:24:15;;;;;;;29.10;20.90;;;7.40;99.90;;;;;;5094397;28;20036;-77
2021/12/11 06:26:41;;;;;;;27.35;19.77;;;7.40;99.90;;;;;;5077554;28;20111;-78
2021/12/11 06:29:07;;;;;;;29.73;18.88;;;7.40;99.90;;;;;;5095604;28;20025;-77
2021/12/11 06:31:33;;;;;;;29.85;20.73;;;7.40;99.90;;;;;;5095460;28;20378;-78
2021/12/11 06:33:59;;;;;;;29.38;20.83;;;7.40;99.90;;;;;;5093863;28;20039;-76
2021/12/11 06:36:26;;;;;;;29.00;20.65;;;7.40;99.90;;;;;;5095161;28;20060;-76
2021/12/11 06:38:57;;;;;;;26.90;18.65;;;7.40;99.90;;;;;;5094428;28;20028;-78
2021/12/11 06:41:27;;;;;;;31.08;19.20;;;7.40;99.90;;;;;;5095140;28;20032;-77
2021/12/11 06:43:54;;;;;;;29.83;20.33;;;7.30;99.90;;;;;;5094188;28;20035;-77
2021/12/11 06:46:20;;;;;;;28.23;20.10;;;7.30;99.90;;;;;;5078122;28;20036;-77
2021/12/11 06:48:46;;;;;;;28.85;20.73;;;7.30;99.90;;;;;;5082182;28;20024;-76
2021/12/11 06:51:12;;;;;;;28.58;21.02;;;7.30;99.90;;;;;;5096600;28;20032;-77
2021/12/11 06:53:42;;;;;;;26.85;19.63;;;7.30;99.90;;;;;;5079177;28;20028;-76
2021/12/11 06:56:11;;;;;;;26.45;19.95;;;7.30;99.90;;;;;;5094178;28;20028;-78
2021/12/11 06:58:36;;;;;;;25.08;17.90;;;7.20;99.90;;;;;;5094651;28;20060;-79
2021/12/11 07:01:05;;;;;;;29.30;20.58;;;7.20;99.90;;;;;;5075043;28;20036;-76
2021/12/11 07:03:31;;;;;;;25.95;19.33;;;7.30;99.90;;;;;;5074226;28;20120;-77
2021/12/11 07:05:56;;;;;;;28.60;21.05;;;7.30;99.90;;;;;;5076986;28;20052;-77
2021/12/11 07:08:23;;;;;;;27.98;19.98;;;7.30;99.90;;;;;;5075975;28;20047;-78
2021/12/11 07:10:49;;;;;;;29.70;19.75;;;7.40;99.90;;;;;;5074766;28;20379;-77
2021/12/11 07:13:16;;;;;;;28.30;19.10;;;7.40;99.90;;;;;;5076644;28;20066;-78
2021/12/11 07:15:42;;;;;;;28.38;19.38;;;7.40;99.90;;;;;;5076692;28;20104;-77
2021/12/11 07:18:08;;;;;;;25.35;18.13;;;7.40;99.90;;;;;;5096000;28;20024;-77
2021/12/11 07:20:34;;;;;;;30.52;20.15;;;7.50;99.90;;;;;;5077632;28;20122;-77
2021/12/11 07:23:01;;;;;;;26.77;19.77;;;7.40;99.90;;;;;;5082624;28;20090;-76
2021/12/11 07:25:32;;;;;;;30.92;20.85;;;7.30;99.90;;;;;;5073888;28;20108;-78
2021/12/11 07:28:03;;;;;;;29.33;22.17;;;7.30;99.90;;;;;;5074495;28;20466;-75
2021/12/11 07:30:31;;;;;;;28.55;18.75;;;7.30;99.90;;;;;;5056061;28;20460;-77
2021/12/11 07:32:59;;;;;;;26.33;19.52;;;7.30;99.90;;;;;;5056192;28;20031;-79
2021/12/11 07:35:25;;;;;;;27.25;19.55;;;7.30;99.90;;;;;;5056622;28;20021;-78
2021/12/11 07:37:51;;;;;;;26.95;19.10;;;7.30;99.90;;;;;;5056610;28;20028;-79
2021/12/11 07:40:20;;;;;;;26.63;18.23;;;7.30;99.90;;;;;;5074740;28;20116;-78
2021/12/11 07:42:47;;;;;;;28.05;19.48;;;7.30;99.90;;;;;;5066371;28;20527;-76
2021/12/11 07:45:13;;;;;;;30.98;19.55;;;7.30;99.90;;;;;;5085285;28;20025;-76
2021/12/11 07:47:39;;;;;;;24.58;16.88;;;7.30;99.90;;;;;;5077385;28;20031;-76
2021/12/11 07:50:05;;;;;;;27.98;19.27;;;7.30;99.90;;;;;;5072078;28;20058;-76
2021/12/11 07:52:31;;;;;;;26.85;19.48;;;7.30;99.90;;;;;;5074035;28;20028;-80
2021/12/11 07:54:57;;;;;;;29.77;19.48;;;7.30;99.90;;;;;;5056781;28;20020;-79
2021/12/11 07:57:22;;;;;;;26.48;18.50;;;7.30;99.90;;;;;;5060647;28;20029;-79
2021/12/11 07:59:48;;;;;;;30.25;18.30;;;7.30;99.90;;;;;;5088110;28;20024;-79
2021/12/11 08:02:14;;;;;;;27.52;18.95;;;7.30;99.90;;;;;;5071372;28;20052;-79
2021/12/11 08:04:40;;;;;;;33.35;21.88;;;7.20;99.90;;;;;;5095895;28;20024;-76
2021/12/11 08:07:05;;;;;;;27.38;19.35;;;7.20;99.90;;;;;;5075912;28;20531;-79
2021/12/11 08:09:34;;;;;;;30.80;20.63;;;7.20;99.90;;;;;;5093134;28;20055;-79
2021/12/11 08:12:00;;;;;;;26.90;17.60;;;7.30;99.90;;;;;;5072465;28;20051;-79
2021/12/11 08:14:26;;;;;;;44.83;29.02;;;7.20;99.90;;;;;;5079109;28;20039;-80
2021/12/11 08:16:56;;;;;;;34.78;22.13;;;7.20;99.90;;;;;;5076109;28;20030;-79
2021/12/11 08:19:26;;;;;;;43.40;27.50;;;7.10;99.90;;;;;;5077312;28;20055;-78
2021/12/11 08:21:55;;;;;;;36.80;24.98;;;7.10;99.90;;;;;;5105590;28;20085;-79
2021/12/11 08:24:22;;;;;;;33.10;23.17;;;7.00;99.90;;;;;;5082164;28;20036;-79
2021/12/11 08:26:50;;;;;;;37.42;25.45;;;6.90;99.90;;;;;;5095394;28;20123;-81
2021/12/11 08:29:18;;;;;;;36.53;25.05;;;6.90;99.90;;;;;;5079052;28;20024;-81
2021/12/11 08:31:46;;;;;;;44.08;29.10;;;6.80;99.90;;;;;;5098596;28;20047;-81
2021/12/11 08:34:12;;;;;;;43.83;26.48;;;6.70;99.90;;;;;;5098370;28;20111;-81
2021/12/11 08:36:39;;;;;;;42.83;26.75;;;6.70;99.90;;;;;;5098276;28;20078;-81
2021/12/11 08:39:08;;;;;;;41.70;27.63;;;6.60;99.90;;;;;;5097372;28;20442;-80
2021/12/11 08:41:34;;;;;;;39.67;25.00;;;6.50;99.90;;;;;;5080056;28;20055;-80
2021/12/11 08:44:06;;;;;;;47.72;30.52;;;6.50;99.90;;;;;;5097027;28;20024;-79
2021/12/11 08:46:34;;;;;;;34.67;23.92;;;6.50;99.90;;;;;;5096313;28;20510;-80
2021/12/11 08:49:06;;;;;;;32.78;21.60;;;6.50;99.90;;;;;;5084627;28;20074;-81
2021/12/11 08:51:39;;;;;;;32.92;20.20;;;6.60;99.90;;;;;;5067398;28;20043;-81
2021/12/11 08:54:06;;;;;;;30.30;20.98;;;6.70;99.90;;;;;;5091264;28;20094;-79
2021/12/11 08:56:35;;;;;;;37.40;25.52;;;6.70;99.90;;;;;;5081572;28;20021;-79
2021/12/11 08:59:03;;;;;;;40.03;25.20;;;6.80;99.90;;;;;;5076796;28;20391;-79
2021/12/11 09:01:41;;;;;;;42.63;27.67;;;6.80;99.90;;;;;;5078722;28;20040;-78
2021/12/11 09:04:22;;;;;;;34.78;22.75;;;6.80;99.90;;;;;;5078360;28;20486;-79
2021/12/11 09:06:57;;;;;;;27.90;18.35;;;6.80;99.90;;;;;;5077387;28;20136;-81
2021/12/11 09:09:50;;;;;;;42.22;26.92;;;6.80;99.90;;;;;;5095728;28;20028;-80
2021/12/11 09:12:18;;;;;;;35.20;22.40;;;6.80;99.90;;;;;;5078145;28;20131;-79
2021/12/11 09:14:59;;;;;;;24.58;16.27;;;6.80;99.90;;;;;;5068612;28;20029;-79
2021/12/11 09:17:55;;;;;;;31.35;19.98;;;6.80;99.90;;;;;;5076880;28;20020;-80
2021/12/11 09:20:35;;;;;;;21.92;14.43;;;6.80;99.90;;;;;;5046491;28;20068;-80
2021/12/11 09:23:12;;;;;;;23.92;15.85;;;6.80;99.90;;;;;;5083609;28;20020;-80
2021/12/11 09:26:08;;;;;;;27.00;18.23;;;6.90;99.90;;;;;;5066016;28;20055;-78
2021/12/11 09:28:46;;;;;;;24.38;15.07;;;6.90;99.90;;;;;;5053993;28;20048;-79
2021/12/11 09:31:32;;;;;;;24.17;16.63;;;7.00;99.90;;;;;;5083860;28;20060;-79
2021/12/11 09:34:12;;;;;;;19.40;13.27;;;7.00;99.90;;;;;;5088054;28;20186;-78
2021/12/11 09:36:43;;;;;;;22.27;15.25;;;7.10;99.90;;;;;;5071934;28;20043;-81
2021/12/11 09:39:17;;;;;;;20.83;13.82;;;7.10;99.90;;;;;;5080369;28;20123;-76
2021/12/11 09:41:42;;;;;;;22.17;14.15;;;7.10;99.90;;;;;;5074736;28;20550;-74
2021/12/11 09:44:30;;;;;;;22.95;14.52;;;7.20;99.90;;;;;;5089274;28;20119;-76
2021/12/11 09:47:02;;;;;;;22.48;15.35;;;7.20;99.90;;;;;;5068103;28;20074;-76
2021/12/11 09:49:34;;;;;;;26.95;17.02;;;7.20;99.90;;;;;;5088880;28;20059;-76
2021/12/11 09:52:14;;;;;;;21.38;15.30;;;7.20;99.90;;;;;;5087568;28;20052;-76
2021/12/11 09:54:41;;;;;;;21.90;14.68;;;7.30;99.90;;;;;;5087451;28;20107;-77
2021/12/11 09:57:14;;;;;;;29.35;18.80;;;7.20;99.90;;;;;;5075464;28;20107;-78
2021/12/11 09:59:42;;;;;;;21.17;14.00;;;7.20;99.90;;;;;;5087499;28;20050;-76
2021/12/11 10:02:13;;;;;;;25.02;14.75;;;7.20;99.90;;;;;;5092227;28;20040;-76
2021/12/11 10:04:52;;;;;;;19.98;13.50;;;7.20;99.90;;;;;;5082891;28;20020;-76
2021/12/11 10:07:29;;;;;;;65.63;27.27;;;7.10;99.90;;;;;;5072324;28;20069;-76
2021/12/11 10:10:05;;;;;;;30.67;18.30;;;7.10;99.90;;;;;;5078315;28;20032;-75
2021/12/11 10:12:35;;;;;;;35.35;19.63;;;7.10;99.90;;;;;;5088382;28;20520;-76
2021/12/11 10:15:17;;;;;;;34.00;20.25;;;7.10;99.90;;;;;;5084949;28;20038;-76
2021/12/11 10:17:49;;;;;;;34.17;21.30;;;7.10;99.90;;;;;;5087550;28;20035;-76
2021/12/11 10:20:29;;;;;;;24.65;15.57;;;7.10;99.90;;;;;;5068042;28;20071;-79
2021/12/11 10:22:58;;;;;;;21.02;14.55;;;7.10;99.90;;;;;;5068816;28;20378;-77
2021/12/11 10:25:30;;;;;;;21.60;14.88;;;7.10;99.90;;;;;;5082386;28;20045;-81
2021/12/11 10:28:01;;;;;;;25.48;16.23;;;7.10;99.90;;;;;;5084597;28;20082;-76
2021/12/11 10:30:30;;;;;;;25.30;15.35;;;7.20;99.90;;;;;;5086107;28;20483;-78
2021/12/11 10:32:56;;;;;;;22.13;14.68;;;7.10;99.90;;;;;;5059557;28;20035;-79
2021/12/11 10:35:27;;;;;;;25.73;18.05;;;7.20;99.90;;;;;;5061714;28;20025;-79
2021/12/11 10:37:53;;;;;;;23.85;16.40;;;7.20;99.90;;;;;;5086852;28;20035;-76
2021/12/11 10:40:29;;;;;;;23.05;15.73;;;7.20;99.90;;;;;;5074884;28;20028;-78
2021/12/11 10:43:07;;;;;;;24.83;15.35;;;7.20;99.90;;;;;;5059840;28;20130;-79
2021/12/11 10:45:32;;;;;;;25.65;17.60;;;7.20;99.90;;;;;;5057251;28;20028;-79
2021/12/11 10:48:02;;;;;;;28.83;20.10;;;7.30;99.90;;;;;;5073804;28;20021;-79
2021/12/11 10:50:39;;;;;;;49.50;32.83;;;7.30;99.90;;;;;;5075036;28;20044;-79
2021/12/11 10:53:08;;;;;;;29.13;19.27;;;7.30;99.90;;;;;;5074463;28;20024;-78
2021/12/11 10:55:35;;;;;;;27.75;17.55;;;7.30;99.90;;;;;;5075419;28;20039;-79
2021/12/11 10:58:05;;;;;;;26.05;18.65;;;7.30;99.90;;;;;;5083499;28;20052;-78
2021/12/11 11:00:40;;;;;;;28.48;20.15;;;7.30;99.90;;;;;;5081793;28;20031;-79
2021/12/11 11:03:06;;;;;;;33.13;22.50;;;7.40;99.90;;;;;;5075239;28;20480;-79
2021/12/11 11:05:34;;;;;;;29.95;20.13;;;7.40;99.90;;;;;;5074713;28;20029;-80
2021/12/11 11:08:01;;;;;;;34.80;22.00;;;7.40;99.90;;;;;;5074304;28;20029;-79
2021/12/11 11:10:31;;;;;;;46.97;27.55;;;7.40;99.90;;;;;;5056223;28;20043;-80
2021/12/11 11:12:59;;;;;;;39.65;26.27;;;7.40;99.90;;;;;;5057066;28;20030;-79
2021/12/11 11:15:28;;;;;;;32.95;21.42;;;7.40;99.90;;;;;;5056503;28;20056;-78
2021/12/11 11:17:54;;;;;;;37.15;23.88;;;7.40;99.90;;;;;;5074610;28;20027;-79
2021/12/11 11:20:29;;;;;;;35.70;24.80;;;7.40;99.90;;;;;;5075194;28;20462;-79
2021/12/11 11:22:55;;;;;;;50.95;30.35;;;7.40;99.90;;;;;;5064576;28;20029;-80
2021/12/11 11:25:29;;;;;;;52.60;29.05;;;7.40;99.90;;;;;;5075511;28;20048;-79
2021/12/11 11:27:59;;;;;;;35.20;23.92;;;7.40;99.90;;;;;;5075953;28;20021;-77
2021/12/11 11:30:32;;;;;;;38.45;25.30;;;7.50;99.90;;;;;;5078266;28;20077;-82
2021/12/11 11:32:59;;;;;;;64.55;41.58;;;7.50;99.90;;;;;;5066026;28;20032;-78
2021/12/11 11:35:28;;;;;;;43.75;28.45;;;7.50;99.90;;;;;;5084393;28;20029;-80
2021/12/11 11:37:57;;;;;;;88.63;50.78;;;7.60;99.90;;;;;;5058039;28;20024;-79
2021/12/11 11:40:36;;;;;;;89.10;55.40;;;7.60;99.90;;;;;;5073361;28;20119;-78
2021/12/11 11:43:03;;;;;;;44.05;27.48;;;7.60;99.90;;;;;;5074433;28;20028;-79
2021/12/11 11:45:29;;;;;;;45.90;29.48;;;7.60;99.90;;;;;;5074562;28;20478;-78
2021/12/11 11:47:55;;;;;;;39.63;25.60;;;7.60;99.90;;;;;;5074608;28;20024;-80
2021/12/11 11:50:25;;;;;;;42.58;27.30;;;7.60;99.90;;;;;;5056531;28;20037;-79
2021/12/11 11:52:51;;;;;;;37.67;25.45;;;7.60;99.90;;;;;;5056320;28;20028;-80
2021/12/11 11:55:21;;;;;;;37.75;25.27;;;7.70;99.90;;;;;;5057085;28;20106;-80
2021/12/11 11:57:49;;;;;;;38.95;25.52;;;7.70;99.90;;;;;;5078616;28;20021;-80
2021/12/11 12:00:31;;;;;;;39.47;27.38;;;7.70;99.90;;;;;;5078311;28;20029;-79
2021/12/11 12:02:58;;;;;;;38.15;24.73;;;7.70;99.90;;;;;;5056613;28;20056;-79
2021/12/11 12:05:26;;;;;;;39.53;26.70;;;7.70;99.90;;;;;;5058479;28;20035;-77
2021/12/11 12:07:53;;;;;;;34.40;24.65;;;7.70;99.90;;;;;;5058354;28;20028;-78
2021/12/11 12:10:24;;;;;;;39.08;26.02;;;7.70;99.90;;;;;;5058221;28;20383;-78
2021/12/11 12:12:50;;;;;;;38.22;24.50;;;7.70;99.90;;;;;;5056176;28;20107;-79
2021/12/11 12:15:21;;;;;;;40.30;26.02;;;7.70;99.90;;;;;;5059787;28;20059;-79
2021/12/11 12:17:47;;;;;;;39.65;25.35;;;7.70;99.90;;;;;;5058576;28;20024;-78
2021/12/11 12:20:16;;;;;;;39.53;25.63;;;7.70;99.90;;;;;;5057862;28;20035;-78
2021/12/11 12:22:45;;;;;;;43.47;29.35;;;7.70;99.90;;;;;;5058620;28;20057;-80
2021/12/11 12:25:11;;;;;;;44.60;27.60;;;7.70;99.90;;;;;;5062702;28;20406;-78
2021/12/11 12:27:38;;;;;;;40.55;25.95;;;7.70;99.90;;;;;;5069618;28;20024;-79
2021/12/11 12:30:11;;;;;;;39.72;25.23;;;7.70;99.90;;;;;;5065428;28;20041;-78
2021/12/11 12:32:36;;;;;;;43.30;26.40;;;7.70;99.90;;;;;;5057551;28;20029;-80
2021/12/11 12:35:11;;;;;;;43.83;26.13;;;7.70;99.90;;;;;;5057280;28;20025;-79
2021/12/11 12:37:37;;;;;;;35.08;22.42;;;7.70;99.90;;;;;;5056957;28;20033;-79
2021/12/11 12:40:09;;;;;;;38.53;23.50;;;7.70;99.90;;;;;;5055681;28;20227;-80
2021/12/11 12:42:50;;;;;;;41.42;27.27;;;7.70;99.90;;;;;;5057664;28;20025;-80
2021/12/11 12:45:38;;;;;;;41.63;26.08;;;7.80;99.90;;;;;;5055660;28;20029;-80
2021/12/11 12:48:09;;;;;;;41.47;25.45;;;7.80;99.90;;;;;;5055955;28;20062;-79
2021/12/11 12:50:37;;;;;;;41.03;26.52;;;7.80;99.90;;;;;;5072791;28;20060;-79
2021/12/11 12:53:03;;;;;;;41.63;26.30;;;7.80;99.90;;;;;;5060676;28;20029;-79
2021/12/11 12:55:37;;;;;;;36.30;24.38;;;7.80;99.90;;;;;;5057011;28;20029;-79
2021/12/11 12:58:06;;;;;;;38.55;24.38;;;7.70;99.90;;;;;;5056788;28;20029;-79
2021/12/11 13:00:39;;;;;;;44.03;27.83;;;7.80;99.90;;;;;;5055887;28;20025;-79
2021/12/11 13:03:16;;;;;;;43.75;27.20;;;7.70;99.90;;;;;;5075290;28;20044;-79
2021/12/11 13:05:47;;;;;;;36.58;24.90;;;7.70;99.90;;;;;;5090849;28;20028;-78
2021/12/11 13:08:23;;;;;;;37.47;23.77;;;7.80;99.90;;;;;;5091282;28;20036;-79
2021/12/11 13:11:00;;;;;;;42.63;25.45;;;7.80;99.90;;;;;;5058480;28;20123;-79
2021/12/11 13:13:27;;;;;;;37.42;21.80;;;7.80;99.90;;;;;;5076970;28;20091;-79